AAL9833 KORF-KAUS
Flight info
| Callsign | AAL9833 |
|---|---|
| Flight time | 3h 13m |
| Altitude | 38000 |
| Route | NUTIY1 RDU GSO SALMS ELD EIC WINDU BLEWE5 |
| Aircraft | A319/M-SDE3FGHIRWY/LB1 |
Departure
| Time | 2026-04-29 14:11 |
|---|---|
| Airport | Norfolk International Airport (KORF) |
Arrival
| Time | 2026-04-29 17:24 |
|---|---|
| Airport | Austin Bergstrom International Airport (KAUS) |
| Time | Latitude | Longitude | Altitude | Speed | Heading |
|---|---|---|---|---|---|
| 2026-04-29 13:44 | 36.89954 | -76.20178 | 3 ft | 0 kts | 219° |
| 2026-04-29 14:02 | 36.89966 | -76.20166 | 14 ft | 3 kts | 216° |
| 2026-04-29 14:02 | 36.89982 | -76.20153 | 4 ft | 3 kts | 210° |
| 2026-04-29 14:03 | 36.89996 | -76.20145 | 4 ft | 1 kts | 178° |
| 2026-04-29 14:03 | 36.90005 | -76.20147 | 4 ft | 1 kts | 131° |
| 2026-04-29 14:03 | 36.90010 | -76.20156 | 5 ft | 1 kts | 109° |
| 2026-04-29 14:03 | 36.90013 | -76.20166 | 5 ft | 1 kts | 101° |
| 2026-04-29 14:04 | 36.90014 | -76.20173 | 3 ft | 0 kts | 102° |
| 2026-04-29 14:06 | 36.90013 | -76.20168 | 3 ft | 3 kts | 102° |
| 2026-04-29 14:06 | 36.90007 | -76.20117 | 3 ft | 9 kts | 95° |
| 2026-04-29 14:06 | 36.90007 | -76.20032 | 3 ft | 11 kts | 92° |
| 2026-04-29 14:07 | 36.89993 | -76.19936 | 4 ft | 12 kts | 105° |
| 2026-04-29 14:07 | 36.89955 | -76.19839 | 3 ft | 13 kts | 125° |
| 2026-04-29 14:07 | 36.89933 | -76.19752 | 3 ft | 11 kts | 67° |
| 2026-04-29 14:07 | 36.89996 | -76.19683 | 3 ft | 14 kts | 38° |
| 2026-04-29 14:08 | 36.90076 | -76.19605 | 3 ft | 15 kts | 37° |
| 2026-04-29 14:08 | 36.90170 | -76.19531 | 3 ft | 17 kts | 27° |
| 2026-04-29 14:08 | 36.90276 | -76.19462 | 3 ft | 18 kts | 33° |
| 2026-04-29 14:08 | 36.90369 | -76.19371 | 3 ft | 14 kts | 38° |
| 2026-04-29 14:09 | 36.90452 | -76.19291 | 4 ft | 16 kts | 38° |
| 2026-04-29 14:09 | 36.90533 | -76.19212 | 4 ft | 13 kts | 37° |
| 2026-04-29 14:09 | 36.90588 | -76.19160 | 2 ft | 8 kts | 38° |
| 2026-04-29 14:09 | 36.90614 | -76.19096 | 2 ft | 9 kts | 95° |
| 2026-04-29 14:10 | 36.90574 | -76.19022 | 1 ft | 12 kts | 128° |
| 2026-04-29 14:10 | 36.90539 | -76.18967 | 0 ft | 6 kts | 129° |
| 2026-04-29 14:10 | 36.90512 | -76.18972 | 0 ft | 5 kts | 220° |
| 2026-04-29 14:10 | 36.90395 | -76.19087 | 1 ft | 57 kts | 218° |
| 2026-04-29 14:11 | 36.89833 | -76.19627 | 5 ft | 141 kts | 218° |
| 2026-04-29 14:11 | 36.89003 | -76.20417 | 636 ft | 151 kts | 214° |
| 2026-04-29 14:11 | 36.88140 | -76.21195 | 1525 ft | 155 kts | 212° |
| 2026-04-29 14:11 | 36.87211 | -76.22010 | 2206 ft | 174 kts | 212° |
| 2026-04-29 14:12 | 36.86218 | -76.23020 | 2683 ft | 198 kts | 229° |
| 2026-04-29 14:12 | 36.85655 | -76.24718 | 3129 ft | 228 kts | 257° |
| 2026-04-29 14:12 | 36.85662 | -76.26813 | 3609 ft | 255 kts | 274° |
| 2026-04-29 14:12 | 36.86084 | -76.29013 | 4370 ft | 267 kts | 291° |
| 2026-04-29 14:13 | 36.86791 | -76.31140 | 5378 ft | 269 kts | 292° |
| 2026-04-29 14:13 | 36.87498 | -76.33307 | 6412 ft | 270 kts | 292° |
| 2026-04-29 14:13 | 36.88204 | -76.35485 | 7360 ft | 272 kts | 291° |
| 2026-04-29 14:13 | 36.88918 | -76.37691 | 8283 ft | 275 kts | 291° |
| 2026-04-29 14:14 | 36.89641 | -76.39921 | 9247 ft | 279 kts | 291° |
| 2026-04-29 14:14 | 36.90376 | -76.42186 | 10176 ft | 284 kts | 291° |
| 2026-04-29 14:14 | 36.91146 | -76.44564 | 10580 ft | 306 kts | 291° |
| 2026-04-29 14:14 | 36.91977 | -76.47126 | 10853 ft | 330 kts | 292° |
| 2026-04-29 14:15 | 36.92839 | -76.49890 | 11125 ft | 351 kts | 287° |
| 2026-04-29 14:15 | 36.93288 | -76.52910 | 11782 ft | 358 kts | 274° |
| 2026-04-29 14:15 | 36.93165 | -76.55985 | 12573 ft | 361 kts | 261° |
| 2026-04-29 14:15 | 36.92438 | -76.59003 | 13413 ft | 366 kts | 247° |
| 2026-04-29 14:16 | 36.91180 | -76.61774 | 14238 ft | 369 kts | 239° |
| 2026-04-29 14:16 | 36.89819 | -76.64491 | 15026 ft | 369 kts | 239° |
| 2026-04-29 14:16 | 36.88454 | -76.67216 | 15831 ft | 370 kts | 239° |
| 2026-04-29 14:16 | 36.87091 | -76.69940 | 16651 ft | 371 kts | 239° |
| 2026-04-29 14:17 | 36.85723 | -76.72678 | 17454 ft | 372 kts | 239° |
| 2026-04-29 14:17 | 36.84354 | -76.75419 | 18241 ft | 373 kts | 239° |
| 2026-04-29 14:17 | 36.82994 | -76.78142 | 18901 ft | 376 kts | 239° |
| 2026-04-29 14:17 | 36.81607 | -76.80924 | 19513 ft | 380 kts | 239° |
| 2026-04-29 14:18 | 36.80208 | -76.83728 | 20083 ft | 383 kts | 239° |
| 2026-04-29 14:18 | 36.78789 | -76.86563 | 20583 ft | 387 kts | 239° |
| 2026-04-29 14:18 | 36.77357 | -76.89418 | 21076 ft | 390 kts | 239° |
| 2026-04-29 14:18 | 36.75911 | -76.92295 | 21564 ft | 394 kts | 239° |
| 2026-04-29 14:19 | 36.74446 | -76.95204 | 22042 ft | 397 kts | 239° |
| 2026-04-29 14:19 | 36.72969 | -76.98132 | 22522 ft | 400 kts | 239° |
| 2026-04-29 14:19 | 36.71501 | -77.01044 | 22982 ft | 404 kts | 240° |
| 2026-04-29 14:19 | 36.70034 | -77.04036 | 23451 ft | 407 kts | 241° |
| 2026-04-29 14:20 | 36.68602 | -77.07090 | 23873 ft | 409 kts | 242° |
| 2026-04-29 14:20 | 36.67192 | -77.10179 | 24307 ft | 411 kts | 242° |
| 2026-04-29 14:20 | 36.65788 | -77.13279 | 24746 ft | 412 kts | 243° |
| 2026-04-29 14:20 | 36.64374 | -77.16384 | 25182 ft | 413 kts | 243° |
| 2026-04-29 14:21 | 36.62942 | -77.19493 | 25609 ft | 414 kts | 242° |
| 2026-04-29 14:21 | 36.61500 | -77.22602 | 26013 ft | 415 kts | 242° |
| 2026-04-29 14:21 | 36.60066 | -77.25676 | 26408 ft | 417 kts | 242° |
| 2026-04-29 14:21 | 36.58604 | -77.28798 | 26796 ft | 418 kts | 243° |
| 2026-04-29 14:22 | 36.57140 | -77.31925 | 27168 ft | 420 kts | 243° |
| 2026-04-29 14:22 | 36.55671 | -77.35065 | 27541 ft | 421 kts | 243° |
| 2026-04-29 14:22 | 36.54194 | -77.38223 | 27898 ft | 423 kts | 243° |
| 2026-04-29 14:22 | 36.52714 | -77.41391 | 28306 ft | 423 kts | 243° |
| 2026-04-29 14:23 | 36.51242 | -77.44532 | 28836 ft | 420 kts | 243° |
| 2026-04-29 14:23 | 36.49772 | -77.47666 | 29371 ft | 418 kts | 243° |
| 2026-04-29 14:23 | 36.48327 | -77.50736 | 29895 ft | 416 kts | 243° |
| 2026-04-29 14:23 | 36.46873 | -77.53824 | 30393 ft | 413 kts | 243° |
| 2026-04-29 14:24 | 36.45428 | -77.56897 | 30852 ft | 411 kts | 243° |
| 2026-04-29 14:24 | 36.43990 | -77.59954 | 31323 ft | 409 kts | 243° |
| 2026-04-29 14:24 | 36.42561 | -77.62993 | 31802 ft | 406 kts | 243° |
| 2026-04-29 14:24 | 36.41141 | -77.66011 | 32270 ft | 404 kts | 243° |
| 2026-04-29 14:25 | 36.39727 | -77.69015 | 32759 ft | 401 kts | 244° |
| 2026-04-29 14:25 | 36.38321 | -77.71994 | 33249 ft | 399 kts | 244° |
| 2026-04-29 14:25 | 36.36920 | -77.74955 | 33727 ft | 397 kts | 244° |
| 2026-04-29 14:25 | 36.35526 | -77.77896 | 34183 ft | 394 kts | 244° |
| 2026-04-29 14:26 | 36.34143 | -77.80816 | 34592 ft | 392 kts | 244° |
| 2026-04-29 14:26 | 36.32781 | -77.83688 | 34993 ft | 391 kts | 244° |
| 2026-04-29 14:26 | 36.31403 | -77.86588 | 35365 ft | 389 kts | 244° |
| 2026-04-29 14:26 | 36.30034 | -77.89474 | 35728 ft | 388 kts | 244° |
| 2026-04-29 14:27 | 36.28667 | -77.92357 | 36069 ft | 387 kts | 245° |
| 2026-04-29 14:27 | 36.27305 | -77.95225 | 36417 ft | 386 kts | 245° |
| 2026-04-29 14:27 | 36.25942 | -77.98091 | 36750 ft | 385 kts | 245° |
| 2026-04-29 14:28 | 36.23228 | -78.03777 | 37404 ft | 383 kts | 245° |
| 2026-04-29 14:28 | 36.21873 | -78.06612 | 37700 ft | 382 kts | 245° |
| 2026-04-29 14:28 | 36.20519 | -78.09442 | 37969 ft | 382 kts | 245° |
| 2026-04-29 14:29 | 36.17841 | -78.15046 | 38044 ft | 385 kts | 245° |
| 2026-04-29 14:29 | 36.15093 | -78.20831 | 38037 ft | 383 kts | 249° |
| 2026-04-29 14:29 | 36.14256 | -78.23858 | 38047 ft | 374 kts | 263° |
| 2026-04-29 14:30 | 36.14022 | -78.27046 | 38049 ft | 373 kts | 268° |
| 2026-04-29 14:30 | 36.13708 | -78.33458 | 38044 ft | 373 kts | 268° |
| 2026-04-29 14:31 | 36.13403 | -78.39870 | 38047 ft | 374 kts | 268° |
| 2026-04-29 14:31 | 36.13091 | -78.46281 | 38045 ft | 374 kts | 268° |
| 2026-04-29 14:32 | 36.12772 | -78.52704 | 38041 ft | 374 kts | 268° |
| 2026-04-29 14:32 | 36.12446 | -78.59122 | 38041 ft | 374 kts | 268° |
| 2026-04-29 14:33 | 36.12113 | -78.65491 | 38030 ft | 374 kts | 268° |
| 2026-04-29 14:33 | 36.11793 | -78.71534 | 38031 ft | 374 kts | 268° |
| 2026-04-29 14:34 | 36.11455 | -78.77948 | 38028 ft | 374 kts | 268° |
| 2026-04-29 14:34 | 36.11119 | -78.84368 | 38036 ft | 374 kts | 268° |
| 2026-04-29 14:35 | 36.10784 | -78.90748 | 38033 ft | 374 kts | 267° |
| 2026-04-29 14:35 | 36.10438 | -78.97166 | 38034 ft | 374 kts | 267° |
| 2026-04-29 14:36 | 36.10086 | -79.03591 | 38034 ft | 374 kts | 267° |
| 2026-04-29 14:36 | 36.09732 | -79.10011 | 38030 ft | 374 kts | 267° |
| 2026-04-29 14:37 | 36.09375 | -79.16436 | 38032 ft | 374 kts | 267° |
| 2026-04-29 14:37 | 36.09018 | -79.22814 | 38026 ft | 375 kts | 267° |
| 2026-04-29 14:38 | 36.08653 | -79.29241 | 38028 ft | 375 kts | 267° |
| 2026-04-29 14:38 | 36.08288 | -79.35673 | 38026 ft | 375 kts | 267° |
| 2026-04-29 14:39 | 36.07918 | -79.42096 | 38029 ft | 375 kts | 266° |
| 2026-04-29 14:39 | 36.07547 | -79.48530 | 38033 ft | 375 kts | 266° |
| 2026-04-29 14:40 | 36.07178 | -79.54919 | 38031 ft | 375 kts | 266° |
| 2026-04-29 14:40 | 36.06795 | -79.61349 | 38024 ft | 376 kts | 266° |
| 2026-04-29 14:41 | 36.06404 | -79.67792 | 38022 ft | 376 kts | 266° |
| 2026-04-29 14:41 | 36.06012 | -79.74239 | 37994 ft | 376 kts | 266° |
| 2026-04-29 14:42 | 36.05616 | -79.80693 | 37990 ft | 376 kts | 266° |
| 2026-04-29 14:42 | 36.05222 | -79.87101 | 37976 ft | 377 kts | 266° |
| 2026-04-29 14:43 | 36.04819 | -79.93562 | 37979 ft | 377 kts | 266° |
| 2026-04-29 14:43 | 36.04343 | -80.00023 | 37973 ft | 378 kts | 264° |
| 2026-04-29 14:44 | 36.03567 | -80.06461 | 37980 ft | 379 kts | 262° |
| 2026-04-29 14:44 | 36.02699 | -80.12883 | 37973 ft | 379 kts | 262° |
| 2026-04-29 14:45 | 36.01864 | -80.19274 | 37974 ft | 380 kts | 262° |
| 2026-04-29 14:45 | 36.01053 | -80.25724 | 37977 ft | 380 kts | 262° |
| 2026-04-29 14:46 | 36.00248 | -80.32190 | 37978 ft | 381 kts | 262° |
| 2026-04-29 14:46 | 35.99434 | -80.38660 | 37978 ft | 382 kts | 262° |
| 2026-04-29 14:47 | 35.98605 | -80.45148 | 37982 ft | 383 kts | 262° |
| 2026-04-29 14:47 | 35.97784 | -80.51597 | 37986 ft | 383 kts | 262° |
| 2026-04-29 14:48 | 35.96950 | -80.58104 | 37986 ft | 384 kts | 262° |
| 2026-04-29 14:48 | 35.96110 | -80.64601 | 37986 ft | 384 kts | 262° |
| 2026-04-29 14:49 | 35.95260 | -80.71123 | 37991 ft | 385 kts | 262° |
| 2026-04-29 14:49 | 35.94419 | -80.77598 | 37992 ft | 385 kts | 262° |
| 2026-04-29 14:50 | 35.93569 | -80.84140 | 37994 ft | 386 kts | 262° |
| 2026-04-29 14:50 | 35.92709 | -80.90686 | 37998 ft | 387 kts | 261° |
| 2026-04-29 14:51 | 35.91837 | -80.97240 | 38004 ft | 388 kts | 261° |
| 2026-04-29 14:51 | 35.90964 | -81.03805 | 38003 ft | 388 kts | 261° |
| 2026-04-29 14:52 | 35.90088 | -81.10365 | 38005 ft | 388 kts | 261° |
| 2026-04-29 14:52 | 35.89214 | -81.16936 | 37999 ft | 388 kts | 261° |
| 2026-04-29 14:53 | 35.88335 | -81.23509 | 37995 ft | 389 kts | 261° |
| 2026-04-29 14:53 | 35.87455 | -81.30045 | 38000 ft | 389 kts | 261° |
| 2026-04-29 14:54 | 35.86574 | -81.36551 | 38006 ft | 390 kts | 261° |
| 2026-04-29 14:54 | 35.85680 | -81.43138 | 38008 ft | 390 kts | 261° |
| 2026-04-29 14:55 | 35.84783 | -81.49722 | 38034 ft | 390 kts | 261° |
| 2026-04-29 14:55 | 35.83883 | -81.56308 | 38037 ft | 390 kts | 261° |
| 2026-04-29 14:56 | 35.82975 | -81.62844 | 38039 ft | 389 kts | 261° |
| 2026-04-29 14:56 | 35.82061 | -81.69417 | 38034 ft | 389 kts | 261° |
| 2026-04-29 14:57 | 35.81156 | -81.75989 | 38026 ft | 389 kts | 261° |
| 2026-04-29 14:57 | 35.80244 | -81.82569 | 38018 ft | 390 kts | 261° |
| 2026-04-29 14:58 | 35.79322 | -81.89147 | 38008 ft | 390 kts | 261° |
| 2026-04-29 14:58 | 35.78397 | -81.95721 | 37997 ft | 390 kts | 261° |
| 2026-04-29 14:59 | 35.77468 | -82.02296 | 37983 ft | 390 kts | 261° |
| 2026-04-29 14:59 | 35.76541 | -82.08835 | 37976 ft | 390 kts | 261° |
| 2026-04-29 15:00 | 35.75603 | -82.15420 | 37969 ft | 391 kts | 261° |
| 2026-04-29 15:00 | 35.74658 | -82.22013 | 37973 ft | 392 kts | 261° |
| 2026-04-29 15:01 | 35.73720 | -82.28579 | 37965 ft | 391 kts | 261° |
| 2026-04-29 15:01 | 35.72773 | -82.35186 | 37973 ft | 392 kts | 262° |
| 2026-04-29 15:02 | 35.71825 | -82.41760 | 37982 ft | 393 kts | 261° |
| 2026-04-29 15:02 | 35.70909 | -82.48051 | 37987 ft | 392 kts | 261° |
| 2026-04-29 15:03 | 35.69943 | -82.54655 | 37992 ft | 392 kts | 261° |
| 2026-04-29 15:03 | 35.69009 | -82.61063 | 37996 ft | 392 kts | 262° |
| 2026-04-29 15:04 | 35.68039 | -82.67666 | 37992 ft | 392 kts | 262° |
| 2026-04-29 15:04 | 35.67077 | -82.74208 | 37995 ft | 391 kts | 262° |
| 2026-04-29 15:05 | 35.66106 | -82.80784 | 37998 ft | 391 kts | 262° |
| 2026-04-29 15:05 | 35.65127 | -82.87358 | 37993 ft | 391 kts | 261° |
| 2026-04-29 15:06 | 35.64144 | -82.93933 | 37978 ft | 391 kts | 262° |
| 2026-04-29 15:06 | 35.63159 | -83.00503 | 37978 ft | 391 kts | 262° |
| 2026-04-29 15:07 | 35.62180 | -83.07028 | 37981 ft | 391 kts | 262° |
| 2026-04-29 15:07 | 35.61187 | -83.13592 | 37976 ft | 391 kts | 262° |
| 2026-04-29 15:08 | 35.60193 | -83.20162 | 37982 ft | 391 kts | 262° |
| 2026-04-29 15:08 | 35.59196 | -83.26734 | 37984 ft | 391 kts | 262° |
| 2026-04-29 15:09 | 35.58201 | -83.33252 | 37989 ft | 391 kts | 262° |
| 2026-04-29 15:09 | 35.57194 | -83.39807 | 37988 ft | 391 kts | 262° |
| 2026-04-29 15:10 | 35.56187 | -83.46372 | 37990 ft | 391 kts | 262° |
| 2026-04-29 15:10 | 35.55342 | -83.51814 | 37994 ft | 391 kts | 262° |
| 2026-04-29 15:11 | 35.54329 | -83.58368 | 38000 ft | 391 kts | 262° |
| 2026-04-29 15:11 | 35.53315 | -83.64919 | 37993 ft | 390 kts | 262° |
| 2026-04-29 15:12 | 35.52298 | -83.71464 | 37998 ft | 390 kts | 262° |
| 2026-04-29 15:12 | 35.51273 | -83.78005 | 38015 ft | 390 kts | 262° |
| 2026-04-29 15:13 | 35.50254 | -83.84505 | 38027 ft | 391 kts | 262° |
| 2026-04-29 15:13 | 35.49214 | -83.91041 | 38031 ft | 390 kts | 262° |
| 2026-04-29 15:14 | 35.48177 | -83.97560 | 38035 ft | 389 kts | 262° |
| 2026-04-29 15:14 | 35.47153 | -84.04030 | 38025 ft | 389 kts | 263° |
| 2026-04-29 15:15 | 35.46122 | -84.10528 | 38025 ft | 388 kts | 262° |
| 2026-04-29 15:15 | 35.45083 | -84.17018 | 38027 ft | 387 kts | 262° |
| 2026-04-29 15:16 | 35.44037 | -84.23490 | 38034 ft | 387 kts | 263° |
| 2026-04-29 15:16 | 35.43000 | -84.29906 | 38034 ft | 386 kts | 263° |
| 2026-04-29 15:17 | 35.41958 | -84.36355 | 38037 ft | 385 kts | 263° |
| 2026-04-29 15:17 | 35.40915 | -84.42801 | 38053 ft | 385 kts | 263° |
| 2026-04-29 15:18 | 35.39868 | -84.49218 | 38060 ft | 384 kts | 263° |
| 2026-04-29 15:18 | 35.38824 | -84.55585 | 38055 ft | 383 kts | 263° |
| 2026-04-29 15:19 | 35.37781 | -84.61980 | 38054 ft | 383 kts | 263° |
| 2026-04-29 15:19 | 35.36729 | -84.68364 | 38051 ft | 382 kts | 263° |
| 2026-04-29 15:20 | 35.35673 | -84.74735 | 38010 ft | 381 kts | 263° |
| 2026-04-29 15:20 | 35.34628 | -84.81057 | 38010 ft | 381 kts | 263° |
| 2026-04-29 15:21 | 35.33569 | -84.87411 | 38011 ft | 380 kts | 263° |
| 2026-04-29 15:21 | 35.32509 | -84.93748 | 38013 ft | 380 kts | 263° |
| 2026-04-29 15:22 | 35.31450 | -85.00079 | 38012 ft | 380 kts | 263° |
| 2026-04-29 15:22 | 35.30392 | -85.06418 | 38010 ft | 379 kts | 263° |
| 2026-04-29 15:23 | 35.29340 | -85.12686 | 38014 ft | 379 kts | 263° |
| 2026-04-29 15:23 | 35.28285 | -85.18923 | 38011 ft | 379 kts | 263° |
| 2026-04-29 15:24 | 35.27216 | -85.25232 | 38016 ft | 378 kts | 263° |
| 2026-04-29 15:24 | 35.26142 | -85.31531 | 38015 ft | 378 kts | 263° |
| 2026-04-29 15:25 | 35.25070 | -85.37781 | 38017 ft | 378 kts | 263° |
| 2026-04-29 15:25 | 35.23985 | -85.44075 | 38022 ft | 378 kts | 263° |
| 2026-04-29 15:26 | 35.22906 | -85.50361 | 38016 ft | 377 kts | 263° |
| 2026-04-29 15:26 | 35.21822 | -85.56633 | 38019 ft | 377 kts | 263° |
| 2026-04-29 15:27 | 35.20742 | -85.62856 | 38020 ft | 377 kts | 263° |
| 2026-04-29 15:27 | 35.19658 | -85.69105 | 38022 ft | 376 kts | 263° |
| 2026-04-29 15:28 | 35.18572 | -85.75367 | 38013 ft | 376 kts | 263° |
| 2026-04-29 15:28 | 35.17481 | -85.81615 | 38034 ft | 376 kts | 263° |
| 2026-04-29 15:29 | 35.16395 | -85.87819 | 38016 ft | 375 kts | 263° |
| 2026-04-29 15:30 | 35.14199 | -86.00269 | 38030 ft | 374 kts | 263° |
| 2026-04-29 15:30 | 35.13102 | -86.06491 | 38026 ft | 374 kts | 263° |
| 2026-04-29 15:31 | 35.11995 | -86.12704 | 38024 ft | 374 kts | 263° |
| 2026-04-29 15:31 | 35.10896 | -86.18858 | 38017 ft | 374 kts | 263° |
| 2026-04-29 15:32 | 35.09782 | -86.25067 | 38017 ft | 374 kts | 263° |
| 2026-04-29 15:32 | 35.08674 | -86.31259 | 38036 ft | 373 kts | 263° |
| 2026-04-29 15:33 | 35.07565 | -86.37451 | 38040 ft | 373 kts | 263° |
| 2026-04-29 15:33 | 35.06461 | -86.43586 | 38047 ft | 373 kts | 263° |
| 2026-04-29 15:34 | 35.05342 | -86.49774 | 38053 ft | 373 kts | 264° |
| 2026-04-29 15:34 | 35.04223 | -86.55955 | 38051 ft | 373 kts | 263° |
| 2026-04-29 15:35 | 35.03097 | -86.62129 | 38057 ft | 373 kts | 264° |
| 2026-04-29 15:35 | 35.01978 | -86.68264 | 38050 ft | 373 kts | 264° |
| 2026-04-29 15:36 | 35.00846 | -86.74429 | 38036 ft | 373 kts | 264° |
| 2026-04-29 15:36 | 34.99560 | -86.80573 | 38029 ft | 377 kts | 259° |
| 2026-04-29 15:37 | 34.97958 | -86.86653 | 38020 ft | 377 kts | 259° |
| 2026-04-29 15:37 | 34.96350 | -86.92733 | 38016 ft | 377 kts | 259° |
| 2026-04-29 15:38 | 34.94752 | -86.98773 | 38013 ft | 377 kts | 259° |
| 2026-04-29 15:38 | 34.93139 | -87.04856 | 38012 ft | 377 kts | 259° |
| 2026-04-29 15:39 | 34.91528 | -87.10930 | 38012 ft | 377 kts | 259° |
| 2026-04-29 15:39 | 34.89904 | -87.17017 | 38004 ft | 377 kts | 259° |
| 2026-04-29 15:40 | 34.88284 | -87.23090 | 38010 ft | 377 kts | 259° |
| 2026-04-29 15:40 | 34.86669 | -87.29134 | 38004 ft | 378 kts | 259° |
| 2026-04-29 15:41 | 34.85043 | -87.35206 | 38009 ft | 378 kts | 259° |
| 2026-04-29 15:41 | 34.83405 | -87.41289 | 38010 ft | 378 kts | 259° |
| 2026-04-29 15:42 | 34.81768 | -87.47370 | 38009 ft | 378 kts | 259° |
| 2026-04-29 15:42 | 34.80125 | -87.53453 | 38017 ft | 378 kts | 259° |
| 2026-04-29 15:43 | 34.78477 | -87.59524 | 38019 ft | 378 kts | 259° |
| 2026-04-29 15:43 | 34.76840 | -87.65556 | 38019 ft | 378 kts | 259° |
| 2026-04-29 15:44 | 34.75191 | -87.71622 | 38022 ft | 378 kts | 259° |
| 2026-04-29 15:44 | 34.73553 | -87.77642 | 38020 ft | 377 kts | 260° |
| 2026-04-29 15:45 | 34.71901 | -87.83737 | 38023 ft | 377 kts | 260° |
| 2026-04-29 15:45 | 34.70261 | -87.89733 | 38017 ft | 376 kts | 259° |
| 2026-04-29 15:46 | 34.68603 | -87.95769 | 38015 ft | 376 kts | 259° |
| 2026-04-29 15:46 | 34.66944 | -88.01793 | 38018 ft | 376 kts | 259° |
| 2026-04-29 15:47 | 34.65287 | -88.07814 | 38016 ft | 376 kts | 260° |
| 2026-04-29 15:47 | 34.63634 | -88.13792 | 38016 ft | 376 kts | 260° |
| 2026-04-29 15:48 | 34.61967 | -88.19805 | 38014 ft | 376 kts | 259° |
| 2026-04-29 15:48 | 34.60293 | -88.25811 | 38015 ft | 376 kts | 259° |
| 2026-04-29 15:49 | 34.58622 | -88.31817 | 38016 ft | 376 kts | 260° |
| 2026-04-29 15:49 | 34.56961 | -88.37830 | 38021 ft | 376 kts | 260° |
| 2026-04-29 15:50 | 34.55286 | -88.43843 | 38021 ft | 376 kts | 260° |
| 2026-04-29 15:50 | 34.53603 | -88.49838 | 38032 ft | 376 kts | 260° |
| 2026-04-29 15:51 | 34.51921 | -88.55833 | 38036 ft | 375 kts | 260° |
| 2026-04-29 15:51 | 34.50255 | -88.61776 | 38033 ft | 374 kts | 260° |
| 2026-04-29 15:52 | 34.48579 | -88.67747 | 38031 ft | 374 kts | 260° |
| 2026-04-29 15:52 | 34.46901 | -88.73695 | 38029 ft | 373 kts | 260° |
| 2026-04-29 15:53 | 34.45219 | -88.79635 | 38024 ft | 373 kts | 260° |
| 2026-04-29 15:53 | 34.43532 | -88.85574 | 38022 ft | 372 kts | 260° |
| 2026-04-29 15:54 | 34.41845 | -88.91499 | 38019 ft | 372 kts | 260° |
| 2026-04-29 15:54 | 34.40175 | -88.97387 | 38016 ft | 372 kts | 260° |
| 2026-04-29 15:55 | 34.38499 | -89.03303 | 38014 ft | 372 kts | 260° |
| 2026-04-29 15:55 | 34.36816 | -89.09215 | 38022 ft | 371 kts | 260° |
| 2026-04-29 15:56 | 34.35122 | -89.15123 | 38021 ft | 371 kts | 260° |
| 2026-04-29 15:56 | 34.33434 | -89.20973 | 38032 ft | 371 kts | 260° |
| 2026-04-29 15:57 | 34.31741 | -89.26862 | 38033 ft | 370 kts | 260° |
| 2026-04-29 15:57 | 34.30052 | -89.32744 | 38040 ft | 370 kts | 260° |
| 2026-04-29 15:58 | 34.28360 | -89.38608 | 38034 ft | 370 kts | 260° |
| 2026-04-29 15:58 | 34.26658 | -89.44478 | 38041 ft | 369 kts | 260° |
| 2026-04-29 15:59 | 34.24960 | -89.50333 | 38048 ft | 369 kts | 260° |
| 2026-04-29 15:59 | 34.23268 | -89.56157 | 38044 ft | 369 kts | 260° |
| 2026-04-29 16:00 | 34.21568 | -89.62006 | 38038 ft | 369 kts | 260° |
| 2026-04-29 16:00 | 34.19865 | -89.67860 | 38039 ft | 369 kts | 260° |
| 2026-04-29 16:01 | 34.18168 | -89.73701 | 38033 ft | 369 kts | 260° |
| 2026-04-29 16:01 | 34.16477 | -89.79501 | 38031 ft | 368 kts | 260° |
| 2026-04-29 16:02 | 34.14766 | -89.85324 | 38034 ft | 368 kts | 259° |
| 2026-04-29 16:02 | 34.13048 | -89.91143 | 38032 ft | 368 kts | 259° |
| 2026-04-29 16:03 | 34.11331 | -89.96955 | 38034 ft | 368 kts | 259° |
| 2026-04-29 16:03 | 34.09613 | -90.02769 | 38023 ft | 367 kts | 259° |
| 2026-04-29 16:04 | 34.07905 | -90.08568 | 38006 ft | 368 kts | 256° |
| 2026-04-29 16:04 | 34.06189 | -90.14367 | 38011 ft | 366 kts | 259° |
| 2026-04-29 16:05 | 34.04491 | -90.20090 | 38017 ft | 365 kts | 259° |
| 2026-04-29 16:05 | 34.02772 | -90.25862 | 38024 ft | 365 kts | 259° |
| 2026-04-29 16:06 | 34.01054 | -90.31623 | 38024 ft | 365 kts | 259° |
| 2026-04-29 16:06 | 33.99330 | -90.37392 | 38028 ft | 366 kts | 259° |
| 2026-04-29 16:07 | 33.97606 | -90.43155 | 38026 ft | 366 kts | 259° |
| 2026-04-29 16:07 | 33.95875 | -90.48934 | 38029 ft | 366 kts | 259° |
| 2026-04-29 16:08 | 33.94149 | -90.54703 | 38039 ft | 366 kts | 259° |
| 2026-04-29 16:08 | 33.92427 | -90.60430 | 38040 ft | 367 kts | 259° |
| 2026-04-29 16:09 | 33.90680 | -90.66208 | 38049 ft | 367 kts | 258° |
| 2026-04-29 16:09 | 33.88932 | -90.71974 | 38053 ft | 367 kts | 258° |
| 2026-04-29 16:10 | 33.87183 | -90.77755 | 38052 ft | 367 kts | 258° |
| 2026-04-29 16:10 | 33.85432 | -90.83528 | 38052 ft | 368 kts | 258° |
| 2026-04-29 16:11 | 33.83672 | -90.89310 | 38049 ft | 368 kts | 258° |
| 2026-04-29 16:11 | 33.81921 | -90.95055 | 38044 ft | 368 kts | 258° |
| 2026-04-29 16:12 | 33.80156 | -91.00841 | 38038 ft | 369 kts | 258° |
| 2026-04-29 16:12 | 33.78387 | -91.06630 | 38037 ft | 369 kts | 258° |
| 2026-04-29 16:13 | 33.76612 | -91.12435 | 38032 ft | 370 kts | 258° |
| 2026-04-29 16:13 | 33.74843 | -91.18235 | 38032 ft | 370 kts | 257° |
| 2026-04-29 16:14 | 33.73054 | -91.24043 | 38031 ft | 371 kts | 257° |
| 2026-04-29 16:14 | 33.71275 | -91.29807 | 38032 ft | 371 kts | 257° |
| 2026-04-29 16:15 | 33.69479 | -91.35639 | 38035 ft | 372 kts | 257° |
| 2026-04-29 16:15 | 33.67683 | -91.41462 | 38046 ft | 372 kts | 257° |
| 2026-04-29 16:16 | 33.65877 | -91.47304 | 38049 ft | 373 kts | 257° |
| 2026-04-29 16:16 | 33.64060 | -91.53144 | 38054 ft | 374 kts | 257° |
| 2026-04-29 16:17 | 33.62240 | -91.58991 | 38063 ft | 374 kts | 256° |
| 2026-04-29 16:17 | 33.60423 | -91.64798 | 38060 ft | 375 kts | 256° |
| 2026-04-29 16:18 | 33.58590 | -91.70659 | 38060 ft | 376 kts | 256° |
| 2026-04-29 16:18 | 33.56751 | -91.76525 | 38058 ft | 376 kts | 256° |
| 2026-04-29 16:19 | 33.54908 | -91.82401 | 38067 ft | 377 kts | 256° |
| 2026-04-29 16:19 | 33.53064 | -91.88279 | 38057 ft | 377 kts | 256° |
| 2026-04-29 16:20 | 33.51211 | -91.94169 | 38064 ft | 378 kts | 256° |
| 2026-04-29 16:20 | 33.49367 | -92.00017 | 38060 ft | 378 kts | 256° |
| 2026-04-29 16:21 | 33.47502 | -92.05910 | 38052 ft | 378 kts | 256° |
| 2026-04-29 16:21 | 33.45637 | -92.11807 | 38048 ft | 379 kts | 256° |
| 2026-04-29 16:22 | 33.43767 | -92.17708 | 38049 ft | 379 kts | 256° |
| 2026-04-29 16:22 | 33.41891 | -92.23613 | 38048 ft | 380 kts | 256° |
| 2026-04-29 16:23 | 33.40027 | -92.29481 | 38049 ft | 380 kts | 255° |
| 2026-04-29 16:23 | 33.38138 | -92.35397 | 38044 ft | 381 kts | 255° |
| 2026-04-29 16:24 | 33.36249 | -92.41314 | 38043 ft | 381 kts | 255° |
| 2026-04-29 16:24 | 33.34357 | -92.47236 | 38046 ft | 382 kts | 255° |
| 2026-04-29 16:25 | 33.32455 | -92.53166 | 38050 ft | 382 kts | 255° |
| 2026-04-29 16:25 | 33.30559 | -92.59063 | 38057 ft | 383 kts | 255° |
| 2026-04-29 16:26 | 33.28649 | -92.65003 | 38064 ft | 383 kts | 255° |
| 2026-04-29 16:26 | 33.26732 | -92.70943 | 38069 ft | 383 kts | 255° |
| 2026-04-29 16:27 | 33.24548 | -92.76789 | 38072 ft | 389 kts | 249° |
| 2026-04-29 16:27 | 33.22009 | -92.82441 | 38071 ft | 389 kts | 249° |
| 2026-04-29 16:28 | 33.19443 | -92.88137 | 38073 ft | 390 kts | 249° |
| 2026-04-29 16:28 | 33.16878 | -92.93838 | 38069 ft | 390 kts | 249° |
| 2026-04-29 16:29 | 33.14310 | -92.99535 | 38065 ft | 390 kts | 249° |
| 2026-04-29 16:29 | 33.11756 | -93.05193 | 38052 ft | 390 kts | 249° |
| 2026-04-29 16:30 | 33.09182 | -93.10886 | 38052 ft | 390 kts | 249° |
| 2026-04-29 16:30 | 33.06599 | -93.16580 | 38050 ft | 390 kts | 249° |
| 2026-04-29 16:31 | 33.04017 | -93.22266 | 38053 ft | 390 kts | 249° |
| 2026-04-29 16:31 | 33.01433 | -93.27958 | 38053 ft | 390 kts | 249° |
| 2026-04-29 16:32 | 32.98863 | -93.33596 | 38042 ft | 390 kts | 249° |
| 2026-04-29 16:32 | 32.96271 | -93.39277 | 38039 ft | 390 kts | 249° |
| 2026-04-29 16:33 | 32.92392 | -93.47794 | 38033 ft | 390 kts | 249° |
| 2026-04-29 16:33 | 32.89797 | -93.53469 | 38032 ft | 390 kts | 248° |
| 2026-04-29 16:34 | 32.87211 | -93.59097 | 38029 ft | 390 kts | 248° |
| 2026-04-29 16:34 | 32.84608 | -93.64770 | 38029 ft | 391 kts | 248° |
| 2026-04-29 16:35 | 32.82002 | -93.70438 | 38029 ft | 391 kts | 248° |
| 2026-04-29 16:35 | 32.79392 | -93.76102 | 38033 ft | 391 kts | 248° |
| 2026-04-29 16:36 | 32.76851 | -93.81755 | 38046 ft | 387 kts | 254° |
| 2026-04-29 16:36 | 32.74735 | -93.87621 | 38040 ft | 386 kts | 254° |
| 2026-04-29 16:37 | 32.72612 | -93.93482 | 38036 ft | 386 kts | 253° |
| 2026-04-29 16:37 | 32.70845 | -93.98334 | 38031 ft | 386 kts | 253° |
| 2026-04-29 16:38 | 32.68359 | -94.05181 | 38026 ft | 386 kts | 253° |
| 2026-04-29 16:38 | 32.66234 | -94.11034 | 38028 ft | 386 kts | 253° |
| 2026-04-29 16:39 | 32.64118 | -94.16847 | 38031 ft | 386 kts | 253° |
| 2026-04-29 16:39 | 32.61979 | -94.22694 | 38031 ft | 386 kts | 253° |
| 2026-04-29 16:40 | 32.59838 | -94.28538 | 38036 ft | 386 kts | 253° |
| 2026-04-29 16:40 | 32.57688 | -94.34378 | 38026 ft | 386 kts | 253° |
| 2026-04-29 16:41 | 32.55546 | -94.40212 | 38026 ft | 386 kts | 253° |
| 2026-04-29 16:41 | 32.53403 | -94.46053 | 38023 ft | 386 kts | 253° |
| 2026-04-29 16:42 | 32.51254 | -94.51889 | 38022 ft | 386 kts | 253° |
| 2026-04-29 16:42 | 32.49114 | -94.57676 | 38034 ft | 386 kts | 252° |
| 2026-04-29 16:43 | 32.46958 | -94.63501 | 38045 ft | 386 kts | 252° |
| 2026-04-29 16:43 | 32.44796 | -94.69330 | 38046 ft | 386 kts | 252° |
| 2026-04-29 16:44 | 32.42637 | -94.75152 | 38044 ft | 386 kts | 252° |
| 2026-04-29 16:44 | 32.40492 | -94.80929 | 38045 ft | 386 kts | 252° |
| 2026-04-29 16:45 | 32.38323 | -94.86749 | 38041 ft | 386 kts | 252° |
| 2026-04-29 16:45 | 32.36157 | -94.92561 | 38031 ft | 386 kts | 252° |
| 2026-04-29 16:46 | 32.33986 | -94.98363 | 38028 ft | 386 kts | 252° |
| 2026-04-29 16:46 | 32.31811 | -95.04166 | 38029 ft | 386 kts | 252° |
| 2026-04-29 16:47 | 32.29632 | -95.09967 | 38025 ft | 386 kts | 252° |
| 2026-04-29 16:47 | 32.27471 | -95.15721 | 38040 ft | 385 kts | 252° |
| 2026-04-29 16:48 | 32.25294 | -95.21501 | 38048 ft | 385 kts | 251° |
| 2026-04-29 16:48 | 32.23130 | -95.27251 | 38056 ft | 385 kts | 251° |
| 2026-04-29 16:49 | 32.20957 | -95.33022 | 38055 ft | 385 kts | 251° |
| 2026-04-29 16:49 | 32.18777 | -95.38791 | 38053 ft | 384 kts | 251° |
| 2026-04-29 16:50 | 32.16598 | -95.44548 | 38049 ft | 384 kts | 251° |
| 2026-04-29 16:50 | 32.14445 | -95.50223 | 38042 ft | 384 kts | 251° |
| 2026-04-29 16:51 | 32.12260 | -95.55964 | 38036 ft | 384 kts | 251° |
| 2026-04-29 16:51 | 32.10068 | -95.61707 | 38029 ft | 384 kts | 251° |
| 2026-04-29 16:52 | 32.07888 | -95.67440 | 38030 ft | 383 kts | 251° |
| 2026-04-29 16:52 | 32.05707 | -95.73169 | 38028 ft | 383 kts | 251° |
| 2026-04-29 16:53 | 32.03515 | -95.78901 | 38031 ft | 383 kts | 251° |
| 2026-04-29 16:53 | 32.01334 | -95.84578 | 38030 ft | 383 kts | 251° |
| 2026-04-29 16:54 | 31.99138 | -95.90293 | 38032 ft | 383 kts | 251° |
| 2026-04-29 16:54 | 31.96941 | -95.96007 | 38033 ft | 383 kts | 251° |
| 2026-04-29 16:55 | 31.94751 | -96.01712 | 38031 ft | 383 kts | 250° |
| 2026-04-29 16:55 | 31.92548 | -96.07416 | 38042 ft | 383 kts | 250° |
| 2026-04-29 16:56 | 31.90365 | -96.13056 | 38048 ft | 383 kts | 250° |
| 2026-04-29 16:56 | 31.88160 | -96.18757 | 38055 ft | 383 kts | 250° |
| 2026-04-29 16:57 | 31.85954 | -96.24453 | 38058 ft | 382 kts | 250° |
| 2026-04-29 16:57 | 31.83748 | -96.30147 | 38054 ft | 382 kts | 250° |
| 2026-04-29 16:58 | 31.81536 | -96.35831 | 38052 ft | 382 kts | 250° |
| 2026-04-29 16:58 | 31.79318 | -96.41516 | 38062 ft | 382 kts | 250° |
| 2026-04-29 16:59 | 31.77112 | -96.47163 | 37932 ft | 383 kts | 250° |
| 2026-04-29 16:59 | 31.76000 | -96.50008 | 37666 ft | 382 kts | 250° |
| 2026-04-29 16:59 | 31.74894 | -96.52842 | 37405 ft | 382 kts | 250° |
| 2026-04-29 17:00 | 31.73790 | -96.55675 | 37147 ft | 382 kts | 250° |
| 2026-04-29 17:00 | 31.72681 | -96.58513 | 36644 ft | 382 kts | 250° |
| 2026-04-29 17:00 | 31.71570 | -96.61349 | 35949 ft | 382 kts | 250° |
| 2026-04-29 17:00 | 31.70456 | -96.64184 | 35238 ft | 384 kts | 250° |
| 2026-04-29 17:01 | 31.69335 | -96.67032 | 34530 ft | 385 kts | 250° |
| 2026-04-29 17:01 | 31.68586 | -96.68930 | 34060 ft | 386 kts | 250° |
| 2026-04-29 17:01 | 31.67460 | -96.71786 | 33207 ft | 387 kts | 250° |
| 2026-04-29 17:01 | 31.66329 | -96.74667 | 32264 ft | 391 kts | 249° |
| 2026-04-29 17:02 | 31.65185 | -96.77586 | 31315 ft | 396 kts | 249° |
| 2026-04-29 17:02 | 31.64035 | -96.80509 | 30645 ft | 394 kts | 248° |
| 2026-04-29 17:02 | 31.62917 | -96.83343 | 29985 ft | 391 kts | 248° |
| 2026-04-29 17:02 | 31.61806 | -96.86154 | 29262 ft | 389 kts | 248° |
| 2026-04-29 17:03 | 31.60669 | -96.89027 | 28574 ft | 385 kts | 248° |
| 2026-04-29 17:03 | 31.59543 | -96.91862 | 27908 ft | 382 kts | 247° |
| 2026-04-29 17:03 | 31.58300 | -96.94606 | 27270 ft | 382 kts | 238° |
| 2026-04-29 17:03 | 31.56458 | -96.96860 | 26670 ft | 387 kts | 222° |
| 2026-04-29 17:04 | 31.54125 | -96.98400 | 26067 ft | 393 kts | 211° |
| 2026-04-29 17:04 | 31.51659 | -96.99745 | 25454 ft | 390 kts | 211° |
| 2026-04-29 17:04 | 31.49196 | -97.01067 | 24945 ft | 388 kts | 210° |
| 2026-04-29 17:04 | 31.46741 | -97.02358 | 24479 ft | 387 kts | 210° |
| 2026-04-29 17:05 | 31.44292 | -97.03634 | 24028 ft | 385 kts | 210° |
| 2026-04-29 17:05 | 31.41852 | -97.04901 | 23568 ft | 382 kts | 210° |
| 2026-04-29 17:05 | 31.39425 | -97.06157 | 23039 ft | 380 kts | 210° |
| 2026-04-29 17:05 | 31.37020 | -97.07399 | 22512 ft | 377 kts | 210° |
| 2026-04-29 17:06 | 31.34633 | -97.08636 | 22017 ft | 373 kts | 210° |
| 2026-04-29 17:06 | 31.32280 | -97.09859 | 21535 ft | 370 kts | 210° |
| 2026-04-29 17:06 | 31.29925 | -97.11085 | 21048 ft | 367 kts | 210° |
| 2026-04-29 17:06 | 31.27599 | -97.12296 | 20568 ft | 365 kts | 209° |
| 2026-04-29 17:07 | 31.25289 | -97.13497 | 20081 ft | 362 kts | 209° |
| 2026-04-29 17:07 | 31.23023 | -97.14675 | 19618 ft | 360 kts | 209° |
| 2026-04-29 17:07 | 31.20744 | -97.15860 | 19152 ft | 357 kts | 209° |
| 2026-04-29 17:07 | 31.18482 | -97.17038 | 18688 ft | 355 kts | 209° |
| 2026-04-29 17:08 | 31.16234 | -97.18217 | 18209 ft | 353 kts | 210° |
| 2026-04-29 17:08 | 31.14001 | -97.19382 | 17680 ft | 351 kts | 209° |
| 2026-04-29 17:08 | 31.11772 | -97.20533 | 17177 ft | 348 kts | 208° |
| 2026-04-29 17:08 | 31.09563 | -97.21667 | 16688 ft | 346 kts | 208° |
| 2026-04-29 17:09 | 31.07372 | -97.22791 | 16218 ft | 343 kts | 208° |
| 2026-04-29 17:09 | 31.05199 | -97.23911 | 15750 ft | 340 kts | 207° |
| 2026-04-29 17:09 | 31.03070 | -97.25011 | 15301 ft | 338 kts | 207° |
| 2026-04-29 17:09 | 31.00905 | -97.26132 | 14833 ft | 335 kts | 207° |
| 2026-04-29 17:10 | 30.98783 | -97.27225 | 14390 ft | 333 kts | 206° |
| 2026-04-29 17:10 | 30.96669 | -97.28312 | 13946 ft | 331 kts | 206° |
| 2026-04-29 17:10 | 30.94590 | -97.29382 | 13466 ft | 328 kts | 206° |
| 2026-04-29 17:10 | 30.92512 | -97.30456 | 12961 ft | 327 kts | 206° |
| 2026-04-29 17:11 | 30.90463 | -97.31513 | 12442 ft | 325 kts | 206° |
| 2026-04-29 17:11 | 30.88396 | -97.32583 | 11930 ft | 324 kts | 205° |
| 2026-04-29 17:11 | 30.86336 | -97.33648 | 11415 ft | 323 kts | 205° |
| 2026-04-29 17:11 | 30.84306 | -97.34693 | 11221 ft | 313 kts | 205° |
| 2026-04-29 17:12 | 30.82355 | -97.35695 | 11094 ft | 301 kts | 205° |
| 2026-04-29 17:12 | 30.80474 | -97.36672 | 10975 ft | 290 kts | 206° |
| 2026-04-29 17:12 | 30.78685 | -97.37666 | 10846 ft | 281 kts | 207° |
| 2026-04-29 17:12 | 30.77532 | -97.38329 | 10684 ft | 278 kts | 208° |
| 2026-04-29 17:13 | 30.75231 | -97.39673 | 10273 ft | 276 kts | 207° |
| 2026-04-29 17:13 | 30.73541 | -97.40656 | 9954 ft | 275 kts | 207° |
| 2026-04-29 17:13 | 30.71830 | -97.41644 | 9575 ft | 275 kts | 207° |
| 2026-04-29 17:13 | 30.70116 | -97.42629 | 9209 ft | 274 kts | 207° |
| 2026-04-29 17:14 | 30.68405 | -97.43607 | 8843 ft | 274 kts | 207° |
| 2026-04-29 17:14 | 30.66696 | -97.44581 | 8473 ft | 273 kts | 207° |
| 2026-04-29 17:14 | 30.64990 | -97.45550 | 8117 ft | 272 kts | 208° |
| 2026-04-29 17:14 | 30.63292 | -97.46515 | 7742 ft | 272 kts | 207° |
| 2026-04-29 17:15 | 30.61598 | -97.47480 | 7364 ft | 271 kts | 208° |
| 2026-04-29 17:15 | 30.59905 | -97.48445 | 6984 ft | 270 kts | 208° |
| 2026-04-29 17:15 | 30.58219 | -97.49403 | 6609 ft | 270 kts | 207° |
| 2026-04-29 17:15 | 30.56530 | -97.50354 | 6207 ft | 269 kts | 208° |
| 2026-04-29 17:16 | 30.54880 | -97.51282 | 5960 ft | 263 kts | 208° |
| 2026-04-29 17:16 | 30.53267 | -97.52196 | 5788 ft | 253 kts | 208° |
| 2026-04-29 17:16 | 30.51714 | -97.53079 | 5610 ft | 244 kts | 208° |
| 2026-04-29 17:16 | 30.50211 | -97.53933 | 5447 ft | 237 kts | 208° |
| 2026-04-29 17:17 | 30.48784 | -97.54744 | 5279 ft | 230 kts | 208° |
| 2026-04-29 17:17 | 30.47351 | -97.55556 | 5117 ft | 223 kts | 208° |
| 2026-04-29 17:17 | 30.45964 | -97.56343 | 5034 ft | 220 kts | 208° |
| 2026-04-29 17:17 | 30.44593 | -97.57121 | 5012 ft | 220 kts | 208° |
| 2026-04-29 17:18 | 30.43333 | -97.58072 | 4891 ft | 221 kts | 223° |
| 2026-04-29 17:18 | 30.42274 | -97.59304 | 4655 ft | 218 kts | 226° |
| 2026-04-29 17:18 | 30.41214 | -97.60550 | 4402 ft | 215 kts | 227° |
| 2026-04-29 17:18 | 30.40170 | -97.61773 | 4159 ft | 213 kts | 226° |
| 2026-04-29 17:19 | 30.39146 | -97.62972 | 4012 ft | 205 kts | 226° |
| 2026-04-29 17:19 | 30.38130 | -97.64104 | 3811 ft | 201 kts | 221° |
| 2026-04-29 17:19 | 30.36997 | -97.65003 | 3577 ft | 194 kts | 216° |
| 2026-04-29 17:19 | 30.35897 | -97.65867 | 3337 ft | 188 kts | 215° |
| 2026-04-29 17:20 | 30.34828 | -97.66711 | 3101 ft | 184 kts | 214° |
| 2026-04-29 17:20 | 30.33810 | -97.67516 | 3002 ft | 173 kts | 215° |
| 2026-04-29 17:20 | 30.32823 | -97.68087 | 2836 ft | 151 kts | 198° |
| 2026-04-29 17:20 | 30.31822 | -97.68212 | 2613 ft | 138 kts | 181° |
| 2026-04-29 17:21 | 30.30886 | -97.68187 | 2429 ft | 131 kts | 182° |
| 2026-04-29 17:21 | 30.30059 | -97.68164 | 2272 ft | 129 kts | 182° |
| 2026-04-29 17:21 | 30.29167 | -97.68142 | 2109 ft | 128 kts | 182° |
| 2026-04-29 17:21 | 30.28281 | -97.68118 | 1951 ft | 128 kts | 182° |
| 2026-04-29 17:22 | 30.27386 | -97.68095 | 1784 ft | 128 kts | 180° |
| 2026-04-29 17:22 | 30.26517 | -97.68072 | 1620 ft | 129 kts | 182° |
| 2026-04-29 17:22 | 30.25616 | -97.68053 | 1426 ft | 130 kts | 180° |
| 2026-04-29 17:22 | 30.24719 | -97.68010 | 1257 ft | 132 kts | 177° |
| 2026-04-29 17:23 | 30.23797 | -97.67999 | 1078 ft | 133 kts | 180° |
| 2026-04-29 17:23 | 30.22874 | -97.67982 | 901 ft | 133 kts | 177° |
| 2026-04-29 17:23 | 30.21953 | -97.67957 | 701 ft | 131 kts | 176° |
| 2026-04-29 17:23 | 30.21047 | -97.67929 | 537 ft | 125 kts | 176° |
| 2026-04-29 17:24 | 30.20331 | -97.67910 | 527 ft | 73 kts | 178° |
| 2026-04-29 17:24 | 30.20016 | -97.67888 | 526 ft | 30 kts | 164° |
| 2026-04-29 17:24 | 30.19886 | -97.67778 | 526 ft | 19 kts | 104° |
| 2026-04-29 17:24 | 30.19887 | -97.67625 | 527 ft | 19 kts | 89° |
| 2026-04-29 17:25 | 30.19891 | -97.67466 | 527 ft | 20 kts | 89° |
| 2026-04-29 17:25 | 30.19894 | -97.67299 | 527 ft | 21 kts | 88° |
| 2026-04-29 17:25 | 30.19898 | -97.67128 | 528 ft | 16 kts | 88° |
| 2026-04-29 17:25 | 30.19902 | -97.67017 | 528 ft | 12 kts | 75° |
| 2026-04-29 17:26 | 30.19981 | -97.66986 | 528 ft | 14 kts | 358° |
| 2026-04-29 17:26 | 30.20064 | -97.66988 | 528 ft | 9 kts | 352° |
| 2026-04-29 17:26 | 30.20093 | -97.67037 | 527 ft | 7 kts | 271° |
| 2026-04-29 17:26 | 30.20106 | -97.67083 | 528 ft | 6 kts | 328° |
| 2026-04-29 17:27 | 30.20144 | -97.67071 | 528 ft | 6 kts | 30° |
| 2026-04-29 17:27 | 30.20168 | -97.67054 | 528 ft | 0 kts | 31° |